createdAt,value
2023-03-05T00:01:22.739Z,3.90
2023-03-05T00:03:52.164Z,3.90
2023-03-05T00:06:20.417Z,3.90
2023-03-05T00:08:48.722Z,3.90
2023-03-05T00:11:16.693Z,3.80
2023-03-05T00:13:44.526Z,3.80
2023-03-05T00:16:16.324Z,3.80
2023-03-05T00:18:44.758Z,3.80
2023-03-05T00:21:20.556Z,3.80
2023-03-05T00:23:50.519Z,3.80
2023-03-05T00:26:18.396Z,3.80
2023-03-05T00:28:49.776Z,3.80
2023-03-05T00:31:19.744Z,3.80
2023-03-05T00:33:47.517Z,3.80
2023-03-05T00:36:15.204Z,3.80
2023-03-05T00:38:42.897Z,3.80
2023-03-05T00:41:10.690Z,3.80
2023-03-05T00:43:38.412Z,3.80
2023-03-05T00:46:06.195Z,3.80
2023-03-05T00:48:35.408Z,3.80
2023-03-05T00:51:03.166Z,3.80
2023-03-05T00:53:30.956Z,3.80
2023-03-05T00:55:59.665Z,3.80
2023-03-05T00:58:27.426Z,3.70
2023-03-05T01:00:58.836Z,3.70
2023-03-05T01:03:26.611Z,3.80
2023-03-05T01:05:55.771Z,3.80
2023-03-05T01:08:23.489Z,3.70
2023-03-05T01:10:51.225Z,3.70
2023-03-05T01:13:19.402Z,3.70
2023-03-05T01:15:48.593Z,3.70
2023-03-05T01:18:16.364Z,3.70
2023-03-05T01:20:44.360Z,3.70
2023-03-05T01:23:13.581Z,3.70
2023-03-05T01:25:42.160Z,3.70
2023-03-05T01:28:10.152Z,3.70
2023-03-05T01:30:38.060Z,3.70
2023-03-05T01:33:05.780Z,3.70
2023-03-05T01:35:33.590Z,3.70
2023-03-05T01:38:01.326Z,3.70
2023-03-05T01:40:32.010Z,3.70
2023-03-05T01:43:01.653Z,3.60
2023-03-05T01:45:32.485Z,3.60
2023-03-05T01:48:00.235Z,3.60
2023-03-05T01:50:29.053Z,3.60
2023-03-05T01:53:01.257Z,3.60
2023-03-05T01:55:32.744Z,3.60
2023-03-05T01:58:04.230Z,3.60
2023-03-05T02:00:35.280Z,3.60
2023-03-05T02:03:05.779Z,3.60
2023-03-05T02:05:36.679Z,3.60
2023-03-05T02:08:07.077Z,3.60
2023-03-05T02:10:39.040Z,3.60
2023-03-05T02:13:09.504Z,3.60
2023-03-05T02:15:38.365Z,3.60
2023-03-05T02:18:06.762Z,3.60
2023-03-05T02:20:45.892Z,3.60
2023-03-05T02:23:16.180Z,3.60
2023-03-05T02:25:44.173Z,3.50
2023-03-05T02:28:18.902Z,3.50
2023-03-05T02:30:46.791Z,3.50
2023-03-05T02:33:15.234Z,3.50
2023-03-05T02:35:43.611Z,3.50
2023-03-05T02:38:11.986Z,3.40
2023-03-05T02:40:41.257Z,3.40
2023-03-05T02:43:09.515Z,3.40
2023-03-05T02:45:37.342Z,3.40
2023-03-05T02:48:05.387Z,3.40
2023-03-05T02:50:34.028Z,3.40
2023-03-05T02:53:01.727Z,3.40
2023-03-05T02:55:29.540Z,3.40
2023-03-05T02:57:58.628Z,3.40
2023-03-05T03:00:26.937Z,3.40
2023-03-05T03:02:54.749Z,3.40
2023-03-05T03:05:22.519Z,3.30
2023-03-05T03:07:50.353Z,3.30
2023-03-05T03:10:18.270Z,3.30
2023-03-05T03:12:46.817Z,3.30
2023-03-05T03:15:18.546Z,3.30
2023-03-05T03:17:46.686Z,3.30
2023-03-05T03:20:17.058Z,3.30
2023-03-05T03:22:46.795Z,3.20
2023-03-05T03:25:16.287Z,3.20
2023-03-05T03:27:44.045Z,3.20
2023-03-05T03:30:14.109Z,3.20
2023-03-05T03:32:43.227Z,3.20
2023-03-05T03:35:11.977Z,3.20
2023-03-05T03:37:39.843Z,3.20
2023-03-05T03:40:09.041Z,3.20
2023-03-05T03:42:36.886Z,3.20
2023-03-05T03:45:05.335Z,3.20
2023-03-05T03:47:33.043Z,3.20
2023-03-05T03:50:02.392Z,3.20
2023-03-05T03:52:30.176Z,3.20
2023-03-05T03:55:01.477Z,3.20
2023-03-05T03:57:30.091Z,3.20
2023-03-05T03:59:57.850Z,3.20
2023-03-05T04:02:25.669Z,3.20
2023-03-05T04:04:53.859Z,3.20
2023-03-05T04:07:22.934Z,3.20
2023-03-05T04:09:50.711Z,3.00
2023-03-05T04:12:18.754Z,3.20
2023-03-05T04:14:47.023Z,3.20
2023-03-05T04:17:16.383Z,3.20
2023-03-05T04:19:44.675Z,3.20
2023-03-05T04:22:13.007Z,3.20
2023-03-05T04:24:42.573Z,3.20
2023-03-05T04:27:11.373Z,3.10
2023-03-05T04:29:39.291Z,3.10
2023-03-05T04:32:07.961Z,3.10
2023-03-05T04:34:35.969Z,3.10
2023-03-05T04:37:03.708Z,3.20
2023-03-05T04:39:31.459Z,3.10
2023-03-05T04:42:00.542Z,3.10
2023-03-05T04:44:28.263Z,3.10
2023-03-05T04:46:56.036Z,3.10
2023-03-05T04:49:23.760Z,3.10
2023-03-05T04:51:51.722Z,3.10
2023-03-05T04:54:19.461Z,3.10
2023-03-05T04:56:47.207Z,3.10
2023-03-05T04:59:16.551Z,3.10
2023-03-05T05:01:44.355Z,3.10
2023-03-05T05:04:12.129Z,3.10
2023-03-05T05:06:39.883Z,3.10
2023-03-05T05:09:07.681Z,3.10
2023-03-05T05:11:35.378Z,3.00
2023-03-05T05:14:03.441Z,3.00
2023-03-05T05:16:32.559Z,3.00
2023-03-05T05:19:00.358Z,3.00
2023-03-05T05:21:28.100Z,3.00
2023-03-05T05:23:55.870Z,3.00
2023-03-05T05:26:23.827Z,3.00
2023-03-05T05:28:51.560Z,3.00
2023-03-05T05:31:19.521Z,3.00
2023-03-05T05:33:49.888Z,3.00
2023-03-05T05:36:19.993Z,3.00
2023-03-05T05:38:47.740Z,3.00
2023-03-05T05:41:17.736Z,3.00
2023-03-05T05:43:45.458Z,2.90
2023-03-05T05:46:15.465Z,2.90
2023-03-05T05:48:43.669Z,2.90
2023-03-05T05:51:15.148Z,2.90
2023-03-05T05:53:43.983Z,2.90
2023-03-05T05:56:13.249Z,2.90
2023-03-05T05:58:42.175Z,2.90
2023-03-05T06:01:15.072Z,2.90
2023-03-05T06:03:42.822Z,2.90
2023-03-05T06:06:14.192Z,2.90
2023-03-05T06:08:41.983Z,2.90
2023-03-05T06:11:10.571Z,2.90
2023-03-05T06:13:38.354Z,2.90
2023-03-05T06:16:09.218Z,2.90
2023-03-05T06:18:37.092Z,2.90
2023-03-05T06:21:06.773Z,2.90
2023-03-05T06:23:36.337Z,2.80
2023-03-05T06:26:07.375Z,2.80
2023-03-05T06:28:35.398Z,2.80
2023-03-05T06:31:04.415Z,2.90
2023-03-05T06:33:33.192Z,2.90
2023-03-05T06:36:01.372Z,2.90
2023-03-05T06:38:29.297Z,2.90
2023-03-05T06:41:01.852Z,2.90
2023-03-05T06:43:29.568Z,2.90
2023-03-05T06:46:03.350Z,2.90
2023-03-05T06:48:31.371Z,2.90
2023-03-05T06:50:59.125Z,2.90
2023-03-05T06:53:27.419Z,2.90
2023-03-05T06:55:55.708Z,2.90
2023-03-05T06:58:26.031Z,2.90
2023-03-05T07:00:53.789Z,2.90
2023-03-05T07:03:21.602Z,2.90
2023-03-05T07:05:49.324Z,2.90
2023-03-05T07:08:17.708Z,2.90
2023-03-05T07:10:45.764Z,2.90
2023-03-05T07:13:13.523Z,2.90
2023-03-05T07:15:43.006Z,2.90
2023-03-05T07:18:10.797Z,2.90
2023-03-05T07:20:39.116Z,2.90
2023-03-05T07:23:06.931Z,2.90
2023-03-05T07:25:37.552Z,2.90
2023-03-05T07:28:06.360Z,2.90
2023-03-05T07:30:35.059Z,2.90
2023-03-05T07:33:04.132Z,2.90
2023-03-05T07:35:31.889Z,2.90
2023-03-05T07:37:59.689Z,3.00
2023-03-05T07:40:27.405Z,3.00
2023-03-05T07:42:55.148Z,3.00
2023-03-05T07:45:22.918Z,3.00
2023-03-05T07:47:52.561Z,3.00
2023-03-05T07:50:21.768Z,3.10
2023-03-05T07:52:49.537Z,3.10
2023-03-05T07:55:17.485Z,3.20
2023-03-05T07:57:45.265Z,3.30
2023-03-05T08:00:14.104Z,3.30
2023-03-05T08:02:41.850Z,3.40
2023-03-05T08:05:09.898Z,3.40
2023-03-05T08:07:39.063Z,3.40
2023-03-05T08:10:08.186Z,3.40
2023-03-05T08:12:36.332Z,3.40
2023-03-05T08:15:04.531Z,3.40
2023-03-05T08:17:32.297Z,3.50
2023-03-05T08:20:04.757Z,3.50
2023-03-05T08:22:34.699Z,3.50
2023-03-05T08:25:05.262Z,3.50
2023-03-05T08:27:33.291Z,3.50
2023-03-05T08:30:02.393Z,3.50
2023-03-05T08:32:30.234Z,3.60
2023-03-05T08:34:58.731Z,3.60
2023-03-05T08:37:26.556Z,3.70
2023-03-05T08:39:56.084Z,3.70
2023-03-05T08:42:25.582Z,3.70
2023-03-05T08:44:53.330Z,3.80
2023-03-05T08:47:21.251Z,3.80
2023-03-05T08:49:48.992Z,3.80
2023-03-05T08:52:16.735Z,3.80
2023-03-05T08:54:44.485Z,3.80
2023-03-05T08:57:12.274Z,3.80
2023-03-05T08:59:41.434Z,3.80
2023-03-05T09:02:11.319Z,3.90
2023-03-05T09:04:39.452Z,3.90
2023-03-05T09:07:07.820Z,3.90
2023-03-05T09:09:35.632Z,3.90
2023-03-05T09:12:03.669Z,3.90
2023-03-05T09:14:31.498Z,4.00
2023-03-05T09:17:00.564Z,4.00
2023-03-05T09:19:28.500Z,4.00
2023-03-05T09:21:57.207Z,4.00
2023-03-05T09:24:25.081Z,4.00
2023-03-05T09:26:52.845Z,4.00
2023-03-05T09:29:20.631Z,4.00
2023-03-05T09:31:52.012Z,4.10
2023-03-05T09:34:21.357Z,4.10
2023-03-05T09:36:49.250Z,4.10
2023-03-05T09:39:17.586Z,4.10
2023-03-05T09:42:02.881Z,4.10
2023-03-05T09:44:42.309Z,4.10
2023-03-05T09:47:27.089Z,4.00
2023-03-05T09:50:02.249Z,4.00
2023-03-05T09:52:37.995Z,4.00
2023-03-05T09:55:15.136Z,4.10
2023-03-05T09:57:45.530Z,4.10
2023-03-05T10:00:26.056Z,4.10
2023-03-05T10:02:58.343Z,4.10
2023-03-05T10:05:37.874Z,4.10
2023-03-05T10:08:06.940Z,4.20
2023-03-05T10:10:40.079Z,4.20
2023-03-05T10:13:17.430Z,4.20
2023-03-05T10:15:51.971Z,4.20
2023-03-05T10:18:28.146Z,4.20
2023-03-05T10:21:00.739Z,4.30
2023-03-05T10:24:00.168Z,4.30
2023-03-05T10:26:41.114Z,4.40
2023-03-05T10:29:23.112Z,4.40
2023-03-05T10:31:59.777Z,4.40
2023-03-05T10:34:54.461Z,4.30
2023-03-05T10:37:48.088Z,4.40
2023-03-05T10:40:25.168Z,4.40
2023-03-05T10:43:00.171Z,4.40
2023-03-05T10:45:33.209Z,4.40
2023-03-05T10:48:06.308Z,4.40
2023-03-05T10:50:38.708Z,4.40
2023-03-05T10:53:17.872Z,4.50
2023-03-05T10:55:45.720Z,4.50
2023-03-05T10:58:14.580Z,4.50
2023-03-05T11:00:58.295Z,4.60
2023-03-05T11:03:26.293Z,4.60
2023-03-05T11:06:02.681Z,4.60
2023-03-05T11:08:35.921Z,4.60
2023-03-05T11:11:06.518Z,4.60
2023-03-05T11:13:36.889Z,4.50
2023-03-05T11:16:06.782Z,4.50
2023-03-05T11:18:35.218Z,4.50
2023-03-05T11:21:10.400Z,4.50
2023-03-05T11:23:39.655Z,4.40
2023-03-05T11:26:22.771Z,4.40
2023-03-05T11:28:59.015Z,4.40
2023-03-05T11:31:28.585Z,4.30
2023-03-05T11:33:59.152Z,4.40
2023-03-05T11:36:30.402Z,4.40
2023-03-05T11:39:09.339Z,4.50
2023-03-05T11:41:39.865Z,4.60
2023-03-05T11:44:14.501Z,4.60
2023-03-05T11:46:46.922Z,4.70
2023-03-05T11:49:21.632Z,4.80
2023-03-05T11:51:57.112Z,4.80
2023-03-05T11:54:34.525Z,4.90
2023-03-05T11:57:04.591Z,4.90
2023-03-05T11:59:36.035Z,5.00
2023-03-05T12:02:04.244Z,5.00
2023-03-05T12:04:35.272Z,5.00
2023-03-05T12:07:04.240Z,5.00
2023-03-05T12:09:40.874Z,5.10
2023-03-05T12:12:19.480Z,5.20
2023-03-05T12:14:52.782Z,5.20
2023-03-05T12:17:29.660Z,5.10
2023-03-05T12:20:06.295Z,5.10
2023-03-05T12:22:38.257Z,5.10
2023-03-05T12:25:26.859Z,5.10
2023-03-05T12:27:54.860Z,5.10
2023-03-05T12:30:59.529Z,5.20
2023-03-05T12:33:34.992Z,5.30
2023-03-05T12:36:33.691Z,5.50
2023-03-05T12:39:01.688Z,5.60
2023-03-05T12:41:40.436Z,5.70
2023-03-05T12:44:23.626Z,5.70
2023-03-05T12:47:19.107Z,5.80
2023-03-05T12:49:48.581Z,5.80
2023-03-05T12:52:24.913Z,5.80
2023-03-05T12:55:03.590Z,5.80
2023-03-05T12:57:33.301Z,5.70
2023-03-05T13:00:06.101Z,5.70
2023-03-05T13:02:37.985Z,5.70
2023-03-05T13:05:17.795Z,5.60
2023-03-05T13:07:45.576Z,5.60
2023-03-05T13:10:23.856Z,5.60
2023-03-05T13:12:55.523Z,5.70
2023-03-05T13:15:24.503Z,5.70
2023-03-05T13:17:56.298Z,5.80
2023-03-05T13:20:28.253Z,5.80
2023-03-05T13:23:18.351Z,5.80
2023-03-05T13:25:47.054Z,5.80
2023-03-05T13:28:17.416Z,5.80
2023-03-05T13:30:52.995Z,5.70
2023-03-05T13:33:25.860Z,5.70
2023-03-05T13:35:54.219Z,5.70
2023-03-05T13:38:30.801Z,5.70
2023-03-05T13:41:20.446Z,5.60
2023-03-05T13:43:51.468Z,5.60
2023-03-05T13:46:27.403Z,5.50
2023-03-05T13:48:55.230Z,5.50
2023-03-05T13:51:23.137Z,5.40
2023-03-05T13:53:59.436Z,5.40
2023-03-05T13:56:27.211Z,5.40
2023-03-05T13:58:57.953Z,5.30
2023-03-05T14:01:29.591Z,5.40
2023-03-05T14:04:00.576Z,5.30
2023-03-05T14:06:30.722Z,5.30
2023-03-05T14:09:06.040Z,5.30
2023-03-05T14:11:34.455Z,5.30
2023-03-05T14:14:08.914Z,5.20
2023-03-05T14:16:36.918Z,5.20
2023-03-05T14:19:07.149Z,5.20
2023-03-05T14:21:46.773Z,5.20
2023-03-05T14:24:20.594Z,5.20
2023-03-05T14:26:53.388Z,5.30
2023-03-05T14:29:25.071Z,5.30
2023-03-05T14:31:55.016Z,5.30
2023-03-05T14:34:27.464Z,5.20
2023-03-05T14:36:57.840Z,5.30
2023-03-05T14:39:33.350Z,5.30
2023-03-05T14:42:29.574Z,5.30
2023-03-05T14:45:00.337Z,5.30
2023-03-05T14:47:29.081Z,5.30
2023-03-05T14:49:56.856Z,5.30
2023-03-05T14:52:26.574Z,5.30
2023-03-05T14:54:55.732Z,5.20
2023-03-05T14:57:26.473Z,5.20
2023-03-05T14:59:55.484Z,5.20
2023-03-05T15:02:27.878Z,5.10
2023-03-05T15:04:55.639Z,5.10
2023-03-05T15:07:27.666Z,5.10
2023-03-05T15:09:55.609Z,5.20
2023-03-05T15:12:24.694Z,5.20
2023-03-05T15:14:52.720Z,5.20
2023-03-05T15:17:23.787Z,5.20
2023-03-05T15:19:53.716Z,5.20
2023-03-05T15:22:21.484Z,5.20
2023-03-05T15:24:49.913Z,5.20
2023-03-05T15:27:17.662Z,5.10
2023-03-05T15:29:45.562Z,5.10
2023-03-05T15:32:13.357Z,5.10
2023-03-05T15:34:41.189Z,5.20
2023-03-05T15:37:10.310Z,5.20
2023-03-05T15:39:38.078Z,5.20
2023-03-05T15:42:06.635Z,5.10
2023-03-05T15:44:34.444Z,5.10
2023-03-05T15:47:02.212Z,5.10
2023-03-05T15:49:30.012Z,5.00
2023-03-05T15:51:57.959Z,5.00
2023-03-05T15:54:27.650Z,5.00
2023-03-05T15:56:55.465Z,5.00
2023-03-05T15:59:23.312Z,5.00
2023-03-05T16:01:52.411Z,4.90
2023-03-05T16:04:20.247Z,4.90
2023-03-05T16:06:50.014Z,4.90
2023-03-05T16:09:20.487Z,4.90
2023-03-05T16:11:51.361Z,4.90
2023-03-05T16:14:23.313Z,4.80
2023-03-05T16:16:51.704Z,4.80
2023-03-05T16:19:20.606Z,4.80
2023-03-05T16:21:48.398Z,4.80
2023-03-05T16:24:16.180Z,4.70
2023-03-05T16:26:44.039Z,4.70
2023-03-05T16:29:14.148Z,4.70
2023-03-05T16:31:43.096Z,4.70
2023-03-05T16:34:13.854Z,4.60
2023-03-05T16:36:42.244Z,4.60
2023-03-05T16:39:10.003Z,4.60
2023-03-05T16:41:37.791Z,4.60
2023-03-05T16:44:06.004Z,4.60
2023-03-05T16:46:35.354Z,4.50
2023-03-05T16:49:03.724Z,4.50
2023-03-05T16:51:31.880Z,4.50
2023-03-05T16:53:59.657Z,4.50
2023-03-05T16:56:27.439Z,4.50
2023-03-05T16:58:56.869Z,4.50
2023-03-05T17:01:25.459Z,4.50
2023-03-05T17:03:54.673Z,4.50
2023-03-05T17:06:24.542Z,4.50
2023-03-05T17:08:53.410Z,4.40
2023-03-05T17:11:22.100Z,4.40
2023-03-05T17:13:50.253Z,4.40
2023-03-05T17:16:20.298Z,4.40
2023-03-05T17:18:48.988Z,4.40
2023-03-05T17:21:18.403Z,4.30
2023-03-05T17:23:46.255Z,4.30
2023-03-05T17:26:15.955Z,4.30
2023-03-05T17:28:44.254Z,4.30
2023-03-05T17:31:13.251Z,4.30
2023-03-05T17:33:42.377Z,4.30
2023-03-05T17:36:14.941Z,4.30
2023-03-05T17:38:44.720Z,4.30
2023-03-05T17:41:12.487Z,4.30
2023-03-05T17:43:40.229Z,4.30
2023-03-05T17:46:08.879Z,4.20
2023-03-05T17:48:39.013Z,4.20
2023-03-05T17:51:07.241Z,4.20
2023-03-05T17:53:35.918Z,4.20
2023-03-05T17:56:07.764Z,4.20
2023-03-05T17:58:35.673Z,4.20
2023-03-05T18:01:03.584Z,4.10
2023-03-05T18:03:31.391Z,4.10
2023-03-05T18:05:59.160Z,4.10
2023-03-05T18:08:26.939Z,4.10
2023-03-05T18:10:54.842Z,4.10
2023-03-05T18:13:24.097Z,4.10
2023-03-05T18:15:51.852Z,4.10
2023-03-05T18:18:19.899Z,4.00
2023-03-05T18:20:48.617Z,4.00
2023-03-05T18:23:16.831Z,4.00
2023-03-05T18:25:44.954Z,4.00
2023-03-05T18:28:14.746Z,4.00
2023-03-05T18:30:45.901Z,4.00
2023-03-05T18:33:18.826Z,4.00
2023-03-05T18:35:46.656Z,4.00
2023-03-05T18:38:14.486Z,4.00
2023-03-05T18:40:43.646Z,4.00
2023-03-05T18:43:11.673Z,4.00
2023-03-05T18:45:39.517Z,4.00
2023-03-05T18:48:08.863Z,4.00
2023-03-05T18:50:36.617Z,4.00
2023-03-05T18:53:04.535Z,4.00
2023-03-05T18:55:32.853Z,4.00
2023-03-05T18:58:00.812Z,4.00
2023-03-05T19:00:30.952Z,4.00
2023-03-05T19:02:59.229Z,3.90
2023-03-05T19:05:29.218Z,3.90
2023-03-05T19:07:57.509Z,3.90
2023-03-05T19:10:25.298Z,3.90
2023-03-05T19:12:57.667Z,3.90
2023-03-05T19:15:25.445Z,3.90
2023-03-05T19:17:54.726Z,3.90
2023-03-05T19:20:22.551Z,3.90
2023-03-05T19:22:51.734Z,3.90
2023-03-05T19:25:19.724Z,3.90
2023-03-05T19:27:47.509Z,3.90
2023-03-05T19:30:16.394Z,3.80
2023-03-05T19:32:46.990Z,3.80
2023-03-05T19:35:16.242Z,3.80
2023-03-05T19:37:45.777Z,3.80
2023-03-05T19:40:16.225Z,3.80
2023-03-05T19:42:43.980Z,3.80
2023-03-05T19:45:12.506Z,3.80
2023-03-05T19:47:40.500Z,3.80
2023-03-05T19:50:09.384Z,3.80
2023-03-05T19:52:37.136Z,3.80
2023-03-05T19:55:05.622Z,3.70
2023-03-05T19:57:34.698Z,3.70
2023-03-05T20:00:02.451Z,3.70
2023-03-05T20:02:30.201Z,3.70
2023-03-05T20:04:57.961Z,3.70
2023-03-05T20:07:25.732Z,3.70
2023-03-05T20:09:55.349Z,3.70
2023-03-05T20:12:23.241Z,3.70
2023-03-05T20:14:52.336Z,3.70
2023-03-05T20:17:20.544Z,3.60
2023-03-05T20:19:48.287Z,3.60
2023-03-05T20:22:16.036Z,3.60
2023-03-05T20:24:43.748Z,3.60
2023-03-05T20:27:11.509Z,3.60
2023-03-05T20:29:39.405Z,3.60
2023-03-05T20:32:08.939Z,3.60
2023-03-05T20:34:36.698Z,3.60
2023-03-05T20:37:04.897Z,3.60
2023-03-05T20:39:32.663Z,3.60
2023-03-05T20:42:00.781Z,3.60
2023-03-05T20:44:28.520Z,3.60
2023-03-05T20:47:12.363Z,3.60
2023-03-05T20:49:41.486Z,3.60
2023-03-05T20:52:09.206Z,3.50
2023-03-05T20:54:37.018Z,3.50
2023-03-05T20:57:05.006Z,3.50
2023-03-05T20:59:32.749Z,3.50
2023-03-05T21:02:00.535Z,3.50
2023-03-05T21:04:28.303Z,3.50
2023-03-05T21:06:57.563Z,3.50
2023-03-05T21:09:28.218Z,3.40
2023-03-05T21:11:55.965Z,3.40
2023-03-05T21:14:23.722Z,3.40
2023-03-05T21:16:51.456Z,3.40
2023-03-05T21:19:19.207Z,3.40
2023-03-05T21:21:46.956Z,3.40
2023-03-05T21:24:17.029Z,3.40
2023-03-05T21:26:44.866Z,3.40
2023-03-05T21:29:12.626Z,3.40
2023-03-05T21:31:40.462Z,3.40
2023-03-05T21:34:08.179Z,3.40
2023-03-05T21:36:35.940Z,3.40
2023-03-05T21:39:03.717Z,3.40
2023-03-05T21:41:32.792Z,3.40
2023-03-05T21:44:03.936Z,3.40
2023-03-05T21:46:31.750Z,3.40
2023-03-05T21:48:59.492Z,3.40
2023-03-05T21:51:38.242Z,3.40
2023-03-05T21:54:06.571Z,3.40
2023-03-05T21:56:35.689Z,3.40
2023-03-05T21:59:03.472Z,3.40
2023-03-05T22:01:31.268Z,3.40
2023-03-05T22:03:59.070Z,3.40
2023-03-05T22:06:26.876Z,3.40
2023-03-05T22:08:54.671Z,3.40
2023-03-05T22:11:22.481Z,3.40
2023-03-05T22:13:51.605Z,3.40
2023-03-05T22:16:23.843Z,3.40
2023-03-05T22:18:51.950Z,3.40
2023-03-05T22:21:21.773Z,3.40
2023-03-05T22:23:49.721Z,3.40
2023-03-05T22:26:17.524Z,3.40
2023-03-05T22:28:45.328Z,3.40
2023-03-05T22:31:20.998Z,3.40
2023-03-05T22:33:48.829Z,3.40
2023-03-05T22:36:16.900Z,3.40
2023-03-05T22:38:44.962Z,3.40
2023-03-05T22:41:14.861Z,3.40
2023-03-05T22:43:42.864Z,3.40
2023-03-05T22:46:11.969Z,3.40
2023-03-05T22:48:41.437Z,3.30
2023-03-05T22:51:09.901Z,3.30
2023-03-05T22:53:37.696Z,3.30
2023-03-05T22:56:09.763Z,3.30
2023-03-05T22:58:37.872Z,3.30
2023-03-05T23:01:12.025Z,3.30
2023-03-05T23:03:41.359Z,3.30
2023-03-05T23:06:10.311Z,3.30
2023-03-05T23:08:38.130Z,3.20
2023-03-05T23:11:10.121Z,3.20
2023-03-05T23:13:37.845Z,3.20
2023-03-05T23:16:06.406Z,3.20
2023-03-05T23:18:34.487Z,3.20
2023-03-05T23:21:03.661Z,3.20
2023-03-05T23:23:31.418Z,3.20
2023-03-05T23:25:59.298Z,3.20
2023-03-05T23:28:27.056Z,3.10
2023-03-05T23:30:54.869Z,3.10
2023-03-05T23:33:24.940Z,3.10
2023-03-05T23:35:54.672Z,3.10
2023-03-05T23:38:24.700Z,3.10
2023-03-05T23:40:54.706Z,3.00
2023-03-05T23:43:25.035Z,3.00
2023-03-05T23:45:54.868Z,3.00
2023-03-05T23:48:23.672Z,2.90
2023-03-05T23:50:51.555Z,2.90
2023-03-05T23:53:21.085Z,2.90
2023-03-05T23:55:50.554Z,2.90
2023-03-05T23:58:20.164Z,2.90
